createdAt,value
2023-12-07T00:01:06.539Z,7.30
2023-12-07T00:03:38.280Z,7.55
2023-12-07T00:06:09.940Z,7.03
2023-12-07T00:08:41.600Z,6.94
2023-12-07T00:11:13.275Z,6.98
2023-12-07T00:13:45.077Z,7.13
2023-12-07T00:16:16.809Z,7.16
2023-12-07T00:18:48.680Z,7.18
2023-12-07T00:21:20.892Z,7.16
2023-12-07T00:23:52.591Z,7.01
2023-12-07T00:26:24.196Z,7.28
2023-12-07T00:28:55.925Z,7.11
2023-12-07T00:31:27.645Z,6.98
2023-12-07T00:33:59.337Z,6.77
2023-12-07T00:36:31.115Z,6.86
2023-12-07T00:39:05.234Z,6.75
2023-12-07T00:41:36.804Z,6.83
2023-12-07T00:44:08.387Z,6.64
2023-12-07T00:46:40.002Z,7.01
2023-12-07T00:49:11.783Z,7.16
2023-12-07T00:51:44.173Z,6.71
2023-12-07T00:54:15.812Z,6.79
2023-12-07T00:56:47.435Z,6.89
2023-12-07T00:59:19.190Z,6.60
2023-12-07T01:01:50.853Z,6.41
2023-12-07T01:04:22.570Z,6.65
2023-12-07T01:06:54.460Z,6.77
2023-12-07T01:09:27.408Z,6.68
2023-12-07T01:12:01.860Z,6.76
2023-12-07T01:14:33.570Z,6.82
2023-12-07T01:17:05.539Z,6.78
2023-12-07T01:19:37.329Z,6.81
2023-12-07T01:22:08.941Z,6.79
2023-12-07T01:24:40.784Z,6.65
2023-12-07T01:27:12.476Z,6.73
2023-12-07T01:29:44.171Z,6.53
2023-12-07T01:32:17.141Z,6.26
2023-12-07T01:34:48.821Z,6.09
2023-12-07T01:37:21.409Z,6.24
2023-12-07T01:39:53.377Z,6.16
2023-12-07T01:42:25.326Z,6.20
2023-12-07T01:44:57.136Z,6.45
2023-12-07T01:47:28.819Z,6.69
2023-12-07T01:50:01.695Z,6.39
2023-12-07T01:52:34.286Z,6.09
2023-12-07T01:55:09.077Z,6.29
2023-12-07T01:57:42.706Z,6.37
2023-12-07T02:00:15.345Z,6.26
2023-12-07T02:02:48.756Z,6.51
2023-12-07T02:05:20.572Z,6.49
2023-12-07T02:07:52.702Z,6.32
2023-12-07T02:10:25.402Z,6.44
2023-12-07T02:12:57.211Z,6.43
2023-12-07T02:15:28.965Z,6.36
2023-12-07T02:18:21.967Z,6.03
2023-12-07T02:21:01.995Z,6.30
2023-12-07T02:23:45.821Z,6.57
2023-12-07T02:26:21.574Z,6.46
2023-12-07T02:28:53.606Z,6.40
2023-12-07T02:31:25.393Z,6.61
2023-12-07T02:33:57.457Z,6.74
2023-12-07T02:36:30.927Z,6.73
2023-12-07T02:39:04.831Z,6.85
2023-12-07T02:41:37.626Z,6.83
2023-12-07T02:44:09.681Z,6.76
2023-12-07T02:46:41.703Z,6.66
2023-12-07T02:49:13.470Z,6.66
2023-12-07T02:51:45.120Z,6.70
2023-12-07T02:54:16.730Z,6.55
2023-12-07T02:56:49.946Z,6.43
2023-12-07T02:59:21.526Z,6.66
2023-12-07T03:01:53.239Z,6.64
2023-12-07T03:04:25.376Z,6.65
2023-12-07T03:06:57.054Z,6.47
2023-12-07T03:09:28.743Z,6.54
2023-12-07T03:12:00.397Z,6.93
2023-12-07T03:14:32.018Z,6.50
2023-12-07T03:17:03.791Z,6.63
2023-12-07T03:19:40.077Z,6.68
2023-12-07T03:22:11.774Z,6.64
2023-12-07T03:24:50.053Z,6.48
2023-12-07T03:27:22.116Z,6.67
2023-12-07T03:29:53.898Z,6.41
2023-12-07T03:32:25.824Z,6.34
2023-12-07T03:34:57.695Z,6.10
2023-12-07T03:37:29.338Z,6.13
2023-12-07T03:40:00.996Z,6.24
2023-12-07T03:42:50.380Z,6.39
2023-12-07T03:45:24.876Z,6.40
2023-12-07T03:47:56.569Z,6.44
2023-12-07T03:50:28.510Z,6.30
2023-12-07T03:53:00.211Z,6.42
2023-12-07T03:55:31.811Z,6.24
2023-12-07T03:58:03.985Z,5.98
2023-12-07T04:00:35.601Z,6.09
2023-12-07T04:03:07.320Z,6.06
2023-12-07T04:05:39.420Z,6.28
2023-12-07T04:08:11.094Z,6.22
2023-12-07T04:10:42.874Z,5.97
2023-12-07T04:13:14.707Z,5.96
2023-12-07T04:15:46.657Z,5.96
2023-12-07T04:18:19.007Z,5.97
2023-12-07T04:20:50.947Z,5.94
2023-12-07T04:23:22.586Z,5.82
2023-12-07T04:25:54.436Z,5.48
2023-12-07T04:28:26.194Z,5.43
2023-12-07T04:30:57.895Z,5.75
2023-12-07T04:33:30.076Z,5.46
2023-12-07T04:36:02.074Z,5.28
2023-12-07T04:38:33.760Z,5.13
2023-12-07T04:41:05.450Z,5.27
2023-12-07T04:43:37.188Z,5.36
2023-12-07T04:46:08.881Z,5.29
2023-12-07T04:48:41.462Z,5.32
2023-12-07T04:51:13.117Z,5.14
2023-12-07T04:53:44.842Z,4.43
2023-12-07T04:56:16.533Z,4.81
2023-12-07T04:58:48.155Z,4.58
2023-12-07T05:01:23.136Z,4.72
2023-12-07T05:03:54.861Z,4.48
2023-12-07T05:06:26.509Z,4.49
2023-12-07T05:08:58.156Z,4.64
2023-12-07T05:11:29.942Z,4.73
2023-12-07T05:14:01.524Z,4.57
2023-12-07T05:16:33.148Z,4.50
2023-12-07T05:19:04.879Z,4.52
2023-12-07T05:21:36.851Z,4.57
2023-12-07T05:24:09.510Z,4.50
2023-12-07T05:26:47.126Z,4.36
2023-12-07T05:29:19.127Z,4.25
2023-12-07T05:31:53.988Z,4.18
2023-12-07T05:34:25.588Z,4.17
2023-12-07T05:36:57.169Z,4.12
2023-12-07T05:39:28.788Z,4.32
2023-12-07T05:42:00.479Z,4.05
2023-12-07T05:44:32.637Z,4.11
2023-12-07T05:47:05.116Z,4.18
2023-12-07T05:49:36.843Z,3.72
2023-12-07T05:52:08.480Z,3.94
2023-12-07T05:54:43.394Z,3.89
2023-12-07T05:57:15.905Z,4.12
2023-12-07T05:59:48.171Z,4.36
2023-12-07T06:02:19.867Z,4.24
2023-12-07T06:04:51.505Z,3.97
2023-12-07T06:07:23.266Z,3.67
2023-12-07T06:09:54.944Z,3.75
2023-12-07T06:12:29.301Z,3.90
2023-12-07T06:15:02.517Z,3.97
2023-12-07T06:17:35.129Z,3.99
2023-12-07T06:20:07.446Z,3.80
2023-12-07T06:22:39.321Z,3.91
2023-12-07T06:25:10.952Z,3.80
2023-12-07T06:27:42.748Z,3.81
2023-12-07T06:30:14.553Z,4.04
2023-12-07T06:32:46.278Z,3.78
2023-12-07T06:35:18.461Z,3.87
2023-12-07T06:37:50.040Z,3.74
2023-12-07T06:40:21.871Z,3.91
2023-12-07T06:42:53.504Z,3.84
2023-12-07T06:45:25.068Z,4.12
2023-12-07T06:47:56.912Z,3.73
2023-12-07T06:50:28.643Z,3.63
2023-12-07T06:53:00.926Z,3.81
2023-12-07T06:55:33.575Z,3.42
2023-12-07T06:58:06.300Z,3.84
2023-12-07T07:00:37.951Z,3.78
2023-12-07T07:03:09.624Z,3.31
2023-12-07T07:05:41.407Z,3.68
2023-12-07T07:08:13.169Z,3.89
2023-12-07T07:10:45.654Z,3.72
2023-12-07T07:13:18.310Z,3.56
2023-12-07T07:15:50.207Z,3.73
2023-12-07T07:18:25.126Z,3.69
2023-12-07T07:20:57.005Z,3.77
2023-12-07T07:23:28.650Z,3.99
2023-12-07T07:26:00.285Z,3.77
2023-12-07T07:28:32.522Z,3.73
2023-12-07T07:31:04.455Z,3.64
2023-12-07T07:33:36.253Z,3.41
2023-12-07T07:36:08.424Z,3.73
2023-12-07T07:38:40.611Z,3.78
2023-12-07T07:41:12.423Z,3.88
2023-12-07T07:43:44.185Z,3.38
2023-12-07T07:46:16.099Z,3.57
2023-12-07T07:48:47.850Z,3.44
2023-12-07T07:51:19.560Z,3.97
2023-12-07T07:53:51.190Z,3.93
2023-12-07T07:56:22.838Z,3.93
2023-12-07T07:58:54.468Z,4.00
2023-12-07T08:01:26.108Z,4.16
2023-12-07T08:03:57.928Z,4.25
2023-12-07T08:06:29.542Z,4.35
2023-12-07T08:09:01.288Z,4.49
2023-12-07T08:11:34.507Z,4.11
2023-12-07T08:14:06.179Z,4.27
2023-12-07T08:16:37.879Z,4.54
2023-12-07T08:19:10.385Z,4.57
2023-12-07T08:21:42.085Z,4.75
2023-12-07T08:24:14.092Z,4.77
2023-12-07T08:26:45.744Z,4.91
2023-12-07T08:29:17.488Z,4.81
2023-12-07T08:31:49.398Z,4.87
2023-12-07T08:34:24.180Z,4.77
2023-12-07T08:36:56.123Z,5.00
2023-12-07T08:39:27.800Z,4.74
2023-12-07T08:41:59.505Z,5.14
2023-12-07T08:44:31.169Z,5.04
2023-12-07T08:47:03.548Z,4.94
2023-12-07T08:49:35.355Z,5.23
2023-12-07T08:52:22.092Z,4.91
2023-12-07T08:54:59.127Z,5.06
2023-12-07T08:57:30.796Z,5.29
2023-12-07T09:00:02.478Z,5.36
2023-12-07T09:02:42.478Z,5.58
2023-12-07T09:05:19.417Z,5.73
2023-12-07T09:07:51.024Z,5.82
2023-12-07T09:10:22.983Z,5.76
2023-12-07T09:12:54.711Z,6.22
2023-12-07T09:15:26.413Z,6.08
2023-12-07T09:17:58.163Z,6.28
2023-12-07T09:20:30.133Z,6.25
2023-12-07T09:23:01.759Z,5.99
2023-12-07T09:25:34.076Z,6.33
2023-12-07T09:28:06.094Z,6.71
2023-12-07T09:30:37.834Z,6.88
2023-12-07T09:33:09.548Z,7.04
2023-12-07T09:35:41.391Z,7.23
2023-12-07T09:38:13.077Z,7.54
2023-12-07T09:40:46.707Z,7.34
2023-12-07T09:43:18.628Z,7.49
2023-12-07T09:45:52.441Z,7.84
2023-12-07T09:48:25.096Z,8.09
2023-12-07T09:50:57.724Z,7.96
2023-12-07T09:53:30.948Z,8.06
2023-12-07T09:56:02.671Z,8.07
2023-12-07T09:58:40.730Z,8.43
2023-12-07T10:01:16.241Z,8.12
2023-12-07T10:03:49.472Z,8.39
2023-12-07T10:06:22.423Z,9.28
2023-12-07T10:09:05.085Z,9.84
2023-12-07T10:11:36.665Z,11.54
2023-12-07T10:14:09.101Z,11.89
2023-12-07T10:16:57.376Z,11.02
2023-12-07T10:19:32.275Z,11.36
2023-12-07T10:22:16.350Z,12.43
2023-12-07T10:24:49.834Z,11.03
2023-12-07T10:27:22.212Z,10.98
2023-12-07T10:29:54.041Z,11.74
2023-12-07T10:32:27.098Z,13.12
2023-12-07T10:35:02.303Z,12.92
2023-12-07T10:37:34.260Z,12.07
2023-12-07T10:40:07.034Z,11.99
2023-12-07T10:42:41.864Z,11.92
2023-12-07T10:45:16.821Z,12.96
2023-12-07T10:47:50.862Z,14.60
2023-12-07T10:50:24.843Z,14.55
2023-12-07T10:53:00.839Z,14.24
2023-12-07T10:55:39.974Z,14.22
2023-12-07T10:58:14.012Z,14.75
2023-12-07T11:00:48.211Z,14.49
2023-12-07T11:03:22.441Z,14.07
2023-12-07T11:05:54.438Z,14.55
2023-12-07T11:08:31.062Z,15.01
2023-12-07T11:11:29.990Z,15.14
2023-12-07T11:14:08.259Z,14.91
2023-12-07T11:16:59.830Z,13.59
2023-12-07T11:19:35.205Z,14.39
2023-12-07T11:22:12.041Z,14.14
2023-12-07T11:25:02.558Z,11.92
2023-12-07T11:27:34.577Z,12.00
2023-12-07T11:30:08.023Z,12.35
2023-12-07T11:32:39.862Z,10.38
2023-12-07T11:35:15.516Z,10.85
2023-12-07T11:38:10.679Z,12.23
2023-12-07T11:40:43.905Z,10.28
2023-12-07T11:43:37.068Z,11.91
2023-12-07T11:46:09.202Z,13.04
2023-12-07T11:48:41.042Z,13.07
2023-12-07T11:51:13.095Z,10.85
2023-12-07T11:53:45.123Z,11.54
2023-12-07T11:56:21.640Z,11.50
2023-12-07T11:58:53.909Z,10.17
2023-12-07T12:01:26.443Z,9.61
2023-12-07T12:03:59.678Z,10.44
2023-12-07T12:06:33.347Z,10.87
2023-12-07T12:09:04.996Z,11.12
2023-12-07T12:11:36.643Z,10.33
2023-12-07T12:14:08.686Z,10.30
2023-12-07T12:16:40.493Z,9.58
2023-12-07T12:19:16.671Z,10.92
2023-12-07T12:21:51.493Z,11.73
2023-12-07T12:24:23.059Z,10.67
2023-12-07T12:26:54.835Z,11.54
2023-12-07T12:29:33.151Z,11.26
2023-12-07T12:32:07.458Z,11.40
2023-12-07T12:34:39.394Z,10.77
2023-12-07T12:37:13.265Z,11.59
2023-12-07T12:39:45.082Z,10.75
2023-12-07T12:42:16.731Z,10.84
2023-12-07T12:44:48.426Z,11.89
2023-12-07T12:47:20.764Z,10.75
2023-12-07T12:49:52.431Z,10.24
2023-12-07T12:52:26.921Z,11.41
2023-12-07T12:54:58.869Z,10.91
2023-12-07T12:57:33.869Z,12.28
2023-12-07T13:00:08.231Z,11.84
2023-12-07T13:02:39.785Z,11.42
2023-12-07T13:05:11.693Z,11.22
2023-12-07T13:07:45.740Z,11.39
2023-12-07T13:10:18.001Z,13.41
2023-12-07T13:12:49.733Z,11.87
2023-12-07T13:15:21.616Z,11.80
2023-12-07T13:17:53.289Z,12.68
2023-12-07T13:20:25.051Z,13.96
2023-12-07T13:22:57.108Z,14.26
2023-12-07T13:25:28.692Z,14.89
2023-12-07T13:28:00.302Z,13.27
2023-12-07T13:30:34.857Z,13.51
2023-12-07T13:33:18.139Z,12.95
2023-12-07T13:35:56.975Z,11.43
2023-12-07T13:38:31.300Z,12.82
2023-12-07T13:41:03.346Z,15.08
2023-12-07T13:43:35.730Z,15.07
2023-12-07T13:46:07.389Z,14.91
2023-12-07T13:48:39.429Z,13.59
2023-12-07T13:51:11.319Z,13.41
2023-12-07T13:53:42.914Z,13.93
2023-12-07T14:02:44.394Z,14.88
2023-12-07T14:05:17.006Z,15.22
2023-12-07T14:07:49.755Z,14.52
2023-12-07T14:10:22.208Z,13.75
2023-12-07T14:12:53.814Z,13.62
2023-12-07T14:15:35.006Z,12.07
2023-12-07T14:18:15.590Z,12.94
2023-12-07T14:20:56.814Z,13.76
2023-12-07T14:23:45.245Z,13.57
2023-12-07T14:26:22.812Z,13.48
2023-12-07T14:28:54.534Z,13.43
2023-12-07T14:31:26.208Z,12.93
2023-12-07T14:33:57.882Z,11.80
2023-12-07T14:36:29.505Z,12.19
2023-12-07T14:39:01.132Z,11.87
2023-12-07T14:41:33.104Z,11.76
2023-12-07T14:44:06.076Z,11.15
2023-12-07T14:46:37.692Z,11.81
2023-12-07T14:49:09.655Z,12.48
2023-12-07T14:51:41.737Z,11.05
2023-12-07T14:54:17.473Z,10.93
2023-12-07T14:56:52.087Z,10.33
2023-12-07T14:59:23.878Z,9.79
2023-12-07T15:01:55.622Z,9.53
2023-12-07T15:04:31.730Z,9.18
2023-12-07T15:07:06.469Z,8.51
2023-12-07T15:09:38.708Z,8.36
2023-12-07T15:12:10.698Z,8.27
2023-12-07T15:14:42.428Z,8.04
2023-12-07T15:17:15.004Z,8.15
2023-12-07T15:19:46.721Z,8.09
2023-12-07T15:22:18.690Z,7.84
2023-12-07T15:24:50.365Z,7.04
2023-12-07T15:27:21.968Z,6.83
2023-12-07T15:29:53.663Z,7.45
2023-12-07T15:32:25.582Z,7.03
2023-12-07T15:34:57.427Z,7.11
2023-12-07T15:37:29.118Z,7.36
2023-12-07T15:40:00.840Z,6.95
2023-12-07T15:42:32.730Z,7.18
2023-12-07T15:45:09.151Z,7.20
2023-12-07T15:47:41.048Z,6.74
2023-12-07T15:50:12.846Z,6.48
2023-12-07T15:52:44.444Z,6.76
2023-12-07T15:55:16.794Z,6.64
2023-12-07T15:57:48.886Z,6.45
2023-12-07T16:00:20.797Z,6.38
2023-12-07T16:02:54.299Z,6.43
2023-12-07T16:05:27.075Z,6.31
2023-12-07T16:07:59.376Z,6.40
2023-12-07T16:10:31.002Z,6.50
2023-12-07T16:13:02.668Z,6.47
2023-12-07T16:15:34.276Z,6.58
2023-12-07T16:18:06.286Z,6.50
2023-12-07T16:20:38.361Z,6.50
2023-12-07T16:23:10.079Z,6.28
2023-12-07T16:25:41.727Z,6.26
2023-12-07T16:28:13.461Z,6.20
2023-12-07T16:30:48.938Z,6.19
2023-12-07T16:33:21.204Z,5.88
2023-12-07T16:35:53.021Z,5.84
2023-12-07T16:38:24.731Z,5.74
2023-12-07T16:40:56.471Z,5.90
2023-12-07T16:43:28.084Z,5.82
2023-12-07T16:45:59.850Z,5.53
2023-12-07T16:48:31.903Z,5.60
2023-12-07T16:51:04.554Z,5.63
2023-12-07T16:53:36.285Z,5.67
2023-12-07T16:56:09.217Z,5.63
2023-12-07T16:58:40.904Z,5.48
2023-12-07T17:01:12.943Z,5.65
2023-12-07T17:03:45.066Z,5.65
2023-12-07T17:06:17.184Z,5.75
2023-12-07T17:08:57.388Z,5.36
2023-12-07T17:11:34.972Z,5.65
2023-12-07T17:14:08.353Z,5.57
2023-12-07T17:16:40.604Z,5.29
2023-12-07T17:19:12.673Z,5.32
2023-12-07T17:21:44.617Z,5.33
2023-12-07T17:24:16.283Z,5.17
2023-12-07T17:26:52.972Z,5.10
2023-12-07T17:29:26.857Z,4.93
2023-12-07T17:31:59.638Z,4.85
2023-12-07T17:34:31.657Z,5.22
2023-12-07T17:37:05.305Z,5.09
2023-12-07T17:39:37.524Z,5.33
2023-12-07T17:42:09.581Z,5.17
2023-12-07T17:44:42.265Z,5.11
2023-12-07T17:47:17.496Z,5.24
2023-12-07T17:49:50.425Z,4.97
2023-12-07T17:52:22.709Z,4.95
2023-12-07T17:54:54.666Z,4.76
2023-12-07T17:57:27.798Z,4.83
2023-12-07T18:00:03.983Z,5.13
2023-12-07T18:02:38.488Z,4.99
2023-12-07T18:05:11.965Z,4.84
2023-12-07T18:07:50.151Z,5.00
2023-12-07T18:10:22.444Z,4.88
2023-12-07T18:12:54.158Z,4.46
2023-12-07T18:15:26.054Z,4.88
2023-12-07T18:17:57.797Z,4.87
2023-12-07T18:20:32.582Z,4.63
2023-12-07T18:23:05.011Z,4.61
2023-12-07T18:25:41.164Z,4.39
2023-12-07T18:28:13.517Z,4.46
2023-12-07T18:30:45.366Z,4.17
2023-12-07T18:33:17.734Z,4.19
2023-12-07T18:35:53.234Z,4.17
2023-12-07T18:38:28.630Z,4.30
2023-12-07T18:41:00.762Z,4.13
2023-12-07T18:43:33.052Z,4.25
2023-12-07T18:46:07.084Z,4.21
2023-12-07T18:48:39.301Z,4.18
2023-12-07T18:51:11.994Z,4.10
2023-12-07T18:53:44.038Z,3.97
2023-12-07T18:56:17.995Z,3.94
2023-12-07T18:58:49.707Z,3.76
2023-12-07T19:01:34.163Z,4.19
2023-12-07T19:04:07.110Z,4.47
2023-12-07T19:06:40.917Z,4.67
2023-12-07T19:09:14.607Z,4.68
2023-12-07T19:11:47.855Z,4.54
2023-12-07T19:14:19.765Z,4.42
2023-12-07T19:16:51.960Z,4.76
2023-12-07T19:19:24.294Z,4.59
2023-12-07T19:21:56.049Z,4.88
2023-12-07T19:24:31.017Z,4.76
2023-12-07T19:27:04.481Z,4.69
2023-12-07T19:29:40.703Z,4.99
2023-12-07T19:32:12.847Z,4.98
2023-12-07T19:34:45.004Z,4.77
2023-12-07T19:37:18.029Z,5.30
2023-12-07T19:39:50.797Z,5.35
2023-12-07T19:42:22.881Z,5.38
2023-12-07T19:44:55.096Z,5.10
2023-12-07T19:47:27.969Z,5.41
2023-12-07T19:50:00.403Z,5.47
2023-12-07T19:52:32.355Z,5.24
2023-12-07T19:55:08.193Z,5.17
2023-12-07T19:57:43.874Z,5.17
2023-12-07T20:00:18.829Z,5.18
2023-12-07T20:02:51.173Z,5.27
2023-12-07T20:05:24.600Z,5.01
2023-12-07T20:07:56.885Z,5.00
2023-12-07T20:10:29.038Z,5.23
2023-12-07T20:13:01.672Z,4.95
2023-12-07T20:15:33.706Z,4.90
2023-12-07T20:18:13.721Z,4.71
2023-12-07T20:20:46.538Z,4.58
2023-12-07T20:23:18.742Z,4.85
2023-12-07T20:25:50.630Z,5.08
2023-12-07T20:28:22.857Z,5.34
2023-12-07T20:30:54.679Z,5.28
2023-12-07T20:33:27.519Z,5.46
2023-12-07T20:36:02.510Z,5.25
2023-12-07T20:38:34.500Z,5.22
2023-12-07T20:41:06.570Z,4.84
2023-12-07T20:43:39.191Z,5.11
2023-12-07T20:46:11.074Z,5.13
2023-12-07T20:48:43.950Z,5.29
2023-12-07T20:51:19.729Z,5.22
2023-12-07T20:53:55.506Z,5.44
2023-12-07T20:56:34.494Z,5.58
2023-12-07T20:59:13.294Z,5.35
2023-12-07T21:01:45.576Z,5.24
2023-12-07T21:04:21.424Z,5.13
2023-12-07T21:06:56.299Z,5.23
2023-12-07T21:09:28.209Z,5.15
2023-12-07T21:12:00.373Z,5.23
2023-12-07T21:14:32.692Z,5.10
2023-12-07T21:17:05.086Z,5.13
2023-12-07T21:19:37.186Z,5.07
2023-12-07T21:22:16.632Z,5.16
2023-12-07T21:24:51.514Z,4.98
2023-12-07T21:27:23.691Z,4.54
2023-12-07T21:29:56.119Z,4.52
2023-12-07T21:32:31.056Z,4.45
2023-12-07T21:35:03.956Z,4.82
2023-12-07T21:37:35.797Z,4.95
2023-12-07T21:40:09.166Z,4.24
2023-12-07T21:42:41.236Z,4.56
2023-12-07T21:45:14.520Z,4.76
2023-12-07T21:47:47.545Z,4.95
2023-12-07T21:50:20.705Z,4.79
2023-12-07T21:52:52.830Z,4.77
2023-12-07T21:55:24.490Z,4.56
2023-12-07T21:57:56.391Z,4.71
2023-12-07T22:00:34.979Z,4.63
2023-12-07T22:03:07.620Z,4.60
2023-12-07T22:05:39.718Z,4.71
2023-12-07T22:08:13.898Z,4.71
2023-12-07T22:10:46.415Z,4.77
2023-12-07T22:13:18.238Z,4.57
2023-12-07T22:15:49.866Z,4.57
2023-12-07T22:18:25.108Z,4.40
2023-12-07T22:20:57.110Z,4.50
2023-12-07T22:23:29.169Z,4.40
2023-12-07T22:26:00.792Z,4.54
2023-12-07T22:28:32.599Z,4.45
2023-12-07T22:31:05.815Z,4.40
2023-12-07T22:33:38.389Z,4.38
2023-12-07T22:36:25.813Z,4.67
2023-12-07T22:38:59.772Z,4.91
2023-12-07T22:41:33.750Z,5.01
2023-12-07T22:44:14.399Z,4.93
2023-12-07T22:46:46.846Z,4.91
2023-12-07T22:49:21.925Z,4.85
2023-12-07T22:51:53.564Z,4.91
2023-12-07T22:54:27.769Z,4.73
2023-12-07T22:56:59.895Z,4.68
2023-12-07T22:59:31.992Z,4.64
2023-12-07T23:02:03.898Z,4.60
2023-12-07T23:04:35.664Z,5.03
2023-12-07T23:07:20.089Z,5.16
2023-12-07T23:09:54.520Z,5.08
2023-12-07T23:12:26.389Z,5.43
2023-12-07T23:14:58.104Z,5.37
2023-12-07T23:17:29.841Z,5.54
2023-12-07T23:20:01.658Z,5.68
2023-12-07T23:22:33.253Z,5.39
2023-12-07T23:25:07.099Z,5.64
2023-12-07T23:27:38.930Z,5.70
2023-12-07T23:30:11.272Z,5.56
2023-12-07T23:32:43.236Z,5.46
2023-12-07T23:35:15.154Z,5.46
2023-12-07T23:37:46.871Z,5.13
2023-12-07T23:40:18.681Z,5.26
2023-12-07T23:42:50.526Z,5.44
2023-12-07T23:45:22.366Z,5.38
2023-12-07T23:47:54.308Z,5.27
2023-12-07T23:50:28.720Z,5.29
2023-12-07T23:53:00.727Z,5.49
2023-12-07T23:55:32.547Z,5.47
2023-12-07T23:58:04.470Z,5.56
